createdAt,value
2023-07-30T00:02:06.128Z,3.42
2023-07-30T00:07:08.208Z,3.35
2023-07-30T00:12:11.543Z,2.42
2023-07-30T00:17:13.742Z,2.42
2023-07-30T00:22:15.925Z,1.75
2023-07-30T00:27:17.963Z,2.80
2023-07-30T00:32:20.202Z,3.40
2023-07-30T00:42:25.831Z,2.70
2023-07-30T00:47:28.396Z,2.65
2023-07-30T00:52:31.575Z,5.68
2023-07-30T00:57:35.494Z,4.28
2023-07-30T01:02:38.235Z,4.38
2023-07-30T01:07:40.390Z,4.53
2023-07-30T01:12:43.976Z,5.28
2023-07-30T01:17:46.655Z,2.67
2023-07-30T01:22:48.903Z,2.85
2023-07-30T01:27:55.383Z,2.38
2023-07-30T01:32:58.887Z,3.17
2023-07-30T01:38:06.677Z,2.65
2023-07-30T01:43:08.862Z,6.20
2023-07-30T01:48:11.057Z,5.45
2023-07-30T01:53:13.376Z,5.85
2023-07-30T01:58:15.633Z,5.78
2023-07-30T02:03:17.836Z,4.57
2023-07-30T02:08:20.049Z,5.28
2023-07-30T02:13:22.198Z,5.22
2023-07-30T02:18:24.431Z,5.95
2023-07-30T02:23:26.916Z,7.95
2023-07-30T02:28:29.060Z,3.42
2023-07-30T02:33:31.181Z,3.80
2023-07-30T02:38:33.330Z,10.65
2023-07-30T02:43:35.432Z,12.48
2023-07-30T02:48:37.618Z,6.70
2023-07-30T02:53:39.836Z,6.10
2023-07-30T02:58:42.050Z,4.72
2023-07-30T03:03:44.273Z,4.97
2023-07-30T03:08:46.442Z,7.22
2023-07-30T03:13:48.659Z,6.00
2023-07-30T03:18:50.822Z,5.18
2023-07-30T03:23:52.977Z,2.88
2023-07-30T03:28:54.982Z,3.50
2023-07-30T03:33:57.208Z,3.65
2023-07-30T03:38:59.446Z,2.55
2023-07-30T03:44:02.000Z,2.88
2023-07-30T03:49:04.160Z,2.70
2023-07-30T03:54:06.719Z,3.10
2023-07-30T03:59:08.817Z,3.38
2023-07-30T04:04:11.013Z,4.25
2023-07-30T04:09:13.236Z,7.22
2023-07-30T04:14:15.456Z,3.42
2023-07-30T04:19:20.492Z,3.53
2023-07-30T04:24:23.021Z,5.55
2023-07-30T04:29:25.175Z,3.72
2023-07-30T04:34:27.931Z,4.70
2023-07-30T04:39:33.190Z,4.88
2023-07-30T04:44:35.631Z,5.63
2023-07-30T04:49:46.808Z,3.58
2023-07-30T04:54:48.965Z,4.93
2023-07-30T04:59:51.120Z,5.50
2023-07-30T05:04:53.413Z,4.13
2023-07-30T05:09:55.624Z,5.32
2023-07-30T05:14:57.686Z,3.70
2023-07-30T05:19:59.787Z,3.88
2023-07-30T05:25:01.972Z,4.03
2023-07-30T05:30:04.412Z,3.53
2023-07-30T05:35:07.194Z,5.13
2023-07-30T05:40:09.688Z,5.93
2023-07-30T05:45:12.508Z,4.95
2023-07-30T05:50:14.640Z,6.75
2023-07-30T05:55:17.153Z,4.10
2023-07-30T06:00:19.442Z,6.32
2023-07-30T06:05:21.680Z,6.25
2023-07-30T06:10:23.892Z,4.07
2023-07-30T06:15:26.144Z,4.57
2023-07-30T06:20:28.494Z,4.85
2023-07-30T06:25:31.426Z,3.83
2023-07-30T06:30:34.282Z,7.53
2023-07-30T06:35:36.441Z,3.33
2023-07-30T06:40:38.651Z,3.67
2023-07-30T06:45:40.762Z,4.00
2023-07-30T06:50:43.303Z,3.70
2023-07-30T06:55:45.553Z,4.30
2023-07-30T07:00:47.816Z,4.53
2023-07-30T07:05:57.093Z,3.15
2023-07-30T07:10:59.242Z,5.93
2023-07-30T07:16:01.405Z,2.53
2023-07-30T07:21:03.971Z,2.80
2023-07-30T07:26:06.145Z,3.55
2023-07-30T07:31:08.358Z,5.03
2023-07-30T07:36:10.688Z,3.50
2023-07-30T07:41:20.080Z,5.78
2023-07-30T07:46:22.724Z,5.00
2023-07-30T07:51:25.054Z,5.32
2023-07-30T07:56:27.276Z,7.32
2023-07-30T08:01:29.512Z,6.63
2023-07-30T08:06:33.425Z,6.85
2023-07-30T08:11:35.964Z,6.00
2023-07-30T08:16:38.292Z,8.23
2023-07-30T08:21:40.816Z,9.60
2023-07-30T08:26:43.224Z,6.68
2023-07-30T08:31:45.591Z,7.07
2023-07-30T08:36:47.770Z,6.65
2023-07-30T08:41:50.094Z,7.60
2023-07-30T08:46:55.149Z,8.05
2023-07-30T08:51:58.568Z,6.88
2023-07-30T08:57:01.552Z,7.97
2023-07-30T09:02:05.572Z,8.80
2023-07-30T09:07:11.206Z,4.97
2023-07-30T09:12:16.957Z,7.35
2023-07-30T09:17:19.979Z,9.18
2023-07-30T09:27:32.442Z,7.25
2023-07-30T09:32:36.306Z,9.15
2023-07-30T09:37:41.193Z,8.88
2023-07-30T09:42:44.983Z,7.53
2023-07-30T09:47:51.411Z,7.68
2023-07-30T09:52:55.722Z,9.00
2023-07-30T09:57:58.417Z,8.98
2023-07-30T10:03:03.883Z,11.32
2023-07-30T10:08:40.531Z,8.50
2023-07-30T10:13:43.356Z,7.90
2023-07-30T10:18:45.877Z,9.85
2023-07-30T10:24:01.685Z,9.30
2023-07-30T10:29:14.769Z,11.27
2023-07-30T10:34:17.076Z,11.25
2023-07-30T10:39:27.391Z,9.82
2023-07-30T10:44:33.526Z,11.77
2023-07-30T10:49:42.697Z,8.05
2023-07-30T10:54:44.904Z,8.52
2023-07-30T10:59:47.919Z,11.98
2023-07-30T11:10:04.902Z,8.68
2023-07-30T11:15:07.753Z,10.35
2023-07-30T11:20:22.494Z,10.07
2023-07-30T11:25:24.837Z,12.25
2023-07-30T11:30:29.901Z,12.23
2023-07-30T11:35:32.567Z,28.05
2023-07-30T11:40:34.948Z,14.52
2023-07-30T11:45:37.261Z,15.48
2023-07-30T11:50:50.217Z,13.55
2023-07-30T11:55:52.409Z,17.40
2023-07-30T12:00:55.236Z,25.42
2023-07-30T12:05:57.439Z,20.73
2023-07-30T12:11:07.465Z,14.35
2023-07-30T12:16:09.907Z,14.50
2023-07-30T12:21:13.547Z,13.05
2023-07-30T12:26:15.746Z,12.80
2023-07-30T12:31:17.901Z,11.70
2023-07-30T12:36:20.077Z,8.68
2023-07-30T12:41:27.325Z,9.75
2023-07-30T12:46:31.391Z,13.88
2023-07-30T12:51:34.320Z,8.85
2023-07-30T12:56:37.822Z,8.50
2023-07-30T13:01:40.802Z,9.70
2023-07-30T13:06:43.978Z,9.25
2023-07-30T13:11:46.164Z,8.20
2023-07-30T13:16:48.438Z,9.18
2023-07-30T13:21:50.666Z,8.52
2023-07-30T13:26:52.866Z,8.00
2023-07-30T13:31:55.088Z,8.00
2023-07-30T13:36:57.270Z,9.60
2023-07-30T13:41:59.425Z,9.38
2023-07-30T13:47:01.612Z,8.77
2023-07-30T13:52:04.046Z,10.63
2023-07-30T13:57:06.723Z,9.23
2023-07-30T14:02:09.010Z,8.60
2023-07-30T14:07:11.229Z,10.23
2023-07-30T14:12:13.475Z,10.65
2023-07-30T14:17:17.029Z,10.75
2023-07-30T14:22:19.262Z,12.45
2023-07-30T14:27:21.466Z,10.05
2023-07-30T14:32:24.604Z,14.15
2023-07-30T14:42:28.785Z,14.02
2023-07-30T14:47:30.921Z,9.35
2023-07-30T14:52:33.195Z,11.48
2023-07-30T14:57:35.594Z,12.60
2023-07-30T15:02:37.867Z,13.38
2023-07-30T15:07:40.023Z,11.23
2023-07-30T15:12:42.188Z,10.05
2023-07-30T15:17:44.365Z,10.50
2023-07-30T15:22:46.642Z,9.15
2023-07-30T15:27:48.929Z,7.63
2023-07-30T15:32:51.278Z,10.65
2023-07-30T15:37:53.472Z,9.05
2023-07-30T15:42:55.667Z,10.20
2023-07-30T15:47:59.322Z,10.48
2023-07-30T15:53:01.688Z,9.60
2023-07-30T15:58:03.887Z,12.50
2023-07-30T16:03:08.247Z,9.70
2023-07-30T16:08:10.564Z,8.65
2023-07-30T16:13:12.835Z,7.93
2023-07-30T16:18:15.005Z,7.80
2023-07-30T16:23:17.165Z,10.88
2023-07-30T16:28:19.369Z,12.18
2023-07-30T16:33:22.087Z,7.85
2023-07-30T16:38:24.785Z,10.07
2023-07-30T16:43:27.143Z,10.32
2023-07-30T16:48:29.573Z,9.73
2023-07-30T16:53:31.731Z,10.68
2023-07-30T16:58:33.982Z,11.25
2023-07-30T17:03:38.905Z,7.63
2023-07-30T17:08:41.169Z,7.78
2023-07-30T17:13:45.475Z,8.75
2023-07-30T17:18:47.816Z,8.05
2023-07-30T17:23:50.351Z,8.23
2023-07-30T17:28:52.527Z,7.95
2023-07-30T17:33:57.647Z,8.98
2023-07-30T17:39:00.211Z,9.65
2023-07-30T17:44:03.642Z,6.43
2023-07-30T17:49:05.953Z,7.85
2023-07-30T17:54:08.182Z,9.35
2023-07-30T17:59:10.792Z,8.77
2023-07-30T18:04:12.953Z,8.07
2023-07-30T18:09:15.581Z,7.22
2023-07-30T18:14:17.808Z,6.72
2023-07-30T18:19:20.351Z,8.52
2023-07-30T18:24:23.057Z,5.88
2023-07-30T18:29:25.199Z,7.05
2023-07-30T18:34:27.372Z,6.97
2023-07-30T18:39:29.561Z,8.55
2023-07-30T18:44:31.752Z,8.93
2023-07-30T18:49:33.929Z,7.47
2023-07-30T18:54:36.025Z,6.68
2023-07-30T18:59:39.366Z,10.25
2023-07-30T19:04:41.581Z,7.63
2023-07-30T19:09:43.857Z,6.88
2023-07-30T19:14:46.004Z,7.43
2023-07-30T19:19:48.820Z,6.80
2023-07-30T19:24:51.084Z,6.53
2023-07-30T19:29:53.308Z,7.13
2023-07-30T19:34:55.584Z,7.65
2023-07-30T19:39:57.869Z,6.25
2023-07-30T19:45:00.063Z,5.40
2023-07-30T19:50:04.097Z,9.70
2023-07-30T19:55:10.684Z,6.45
2023-07-30T20:00:13.649Z,8.45
2023-07-30T20:10:18.903Z,22.35
2023-07-30T20:15:20.983Z,13.05
2023-07-30T20:20:23.507Z,13.77
2023-07-30T20:25:25.864Z,7.25
2023-07-30T20:30:28.021Z,8.07
2023-07-30T20:35:30.396Z,11.98
2023-07-30T20:40:32.597Z,11.23
2023-07-30T20:45:34.789Z,10.38
2023-07-30T20:50:37.376Z,10.63
2023-07-30T20:55:39.582Z,11.48
2023-07-30T21:00:41.852Z,8.27
2023-07-30T21:05:44.125Z,9.82
2023-07-30T21:10:46.321Z,9.40
2023-07-30T21:15:51.436Z,8.70
2023-07-30T21:20:53.739Z,6.57
2023-07-30T21:25:56.023Z,6.60
2023-07-30T21:31:06.000Z,6.28
2023-07-30T21:36:08.304Z,6.68
2023-07-30T21:41:10.499Z,6.40
2023-07-30T21:46:12.949Z,6.53
2023-07-30T21:51:15.163Z,5.60
2023-07-30T21:56:17.326Z,9.25
2023-07-30T22:01:19.512Z,8.95
2023-07-30T22:06:21.707Z,11.07
2023-07-30T22:11:25.623Z,11.80
2023-07-30T22:16:29.749Z,9.48
2023-07-30T22:21:31.922Z,9.80
2023-07-30T22:26:34.216Z,9.82
2023-07-30T22:31:39.775Z,10.88
2023-07-30T22:36:42.405Z,8.35
2023-07-30T22:41:44.985Z,8.73
2023-07-30T22:46:47.376Z,4.70
2023-07-30T22:51:49.589Z,7.82
2023-07-30T22:56:52.061Z,6.43
2023-07-30T23:01:57.652Z,5.57
2023-07-30T23:07:00.080Z,7.43
2023-07-30T23:12:02.385Z,4.57
2023-07-30T23:17:04.763Z,7.88
2023-07-30T23:22:10.464Z,5.97
2023-07-30T23:27:15.178Z,8.65
2023-07-30T23:32:17.915Z,5.88
2023-07-30T23:37:20.100Z,7.15
2023-07-30T23:42:22.256Z,8.00
2023-07-30T23:47:26.127Z,3.17
2023-07-30T23:52:34.799Z,6.90
2023-07-30T23:57:37.772Z,7.60
